ADDS METAR Data INFO
IDs: Format: Raw Decoded Include TAF

Data at: 0153 UTC 17 Oct 2017

KSSI 170053Z AUTO 00000KT 10SM FEW014 24/22 A2999 RMK AO2 LTG DSNT S SLP158 T02390222
KSSI 162353Z AUTO 14004KT 10SM FEW013 OVC075 24/22 A2999 RMK AO2 LTG DSNT SE-SW TSE04B09E24 SLP155 60064 T02390217 10311 20233 53022
KSSI 162338Z AUTO 08006KT 10SM FEW013 SCT047 OVC075 24/22 A2997 RMK AO2 LTG DSNT E-SW TSE04B09E24 T02390222
KSSI 162330Z AUTO 08009KT 9SM VCTS FEW012 BKN048 OVC080 24/23 A2997 RMK AO2 LTG DSNT E-SW TSE04B09E24 T02390228
KSSI 162253Z AUTO 00000KT 8SM TS FEW010 SCT037 BKN048 24/23 A2996 RMK AO2 LTG DSNT E AND SW RAB00E42 TSB19E42B49 SLP146 P0064 T02390233
KSSI 162244Z AUTO 09003KT 8SM VCTS SCT011 BKN037 OVC050 24/23 A2995 RMK AO2 LTG DSNT E AND SW RAB00E42 TSB19E42 P0064 T02390233
KSSI 162239Z AUTO 06004KT 3SM -TSRA BR FEW011 BKN023 OVC037 24/23 A2995 RMK AO2 LTG DSNT NE AND E AND SW RAB00 TSB19 P0064 T02390228
KSSI 162236Z AUTO 07006KT 1SM -TSRA BR SCT011 BKN023 OVC037 23/23 A2995 RMK AO2 LTG DSNT NE AND E AND SW RAB00 TSB19 P0064 T02330228
KSSI 162228Z AUTO 06010KT 1/4SM +TSRA FG BKN013 BKN028 OVC080 24/23 A2995 RMK AO2 LTG DSNT NE RAB00 TSB19 P0058 T02390228
KSSI 162222Z AUTO 01011G19KT 3/4SM +TSRA BR SCT015 BKN028 OVC110 25/23 A2995 RMK AO2 LTG DSNT NE RAB00 TSB19 P0023 T02500228
KSSI 162220Z AUTO 02016G19KT 1 3/4SM TSRA SCT019 BKN037 OVC100 26/23 A2995 RMK AO2 LTG DSNT NE RAB00 TSB19 PRESRR P0015 T02560228
KSSI 162208Z AUTO 18005KT 3SM VCTS -RA FEW038 BKN090 OVC110 27/23 A2993 RMK AO2 RAB00 P0003 T02670233
KSSI 162153Z AUTO 13005KT 10SM SCT060 SCT075 SCT100 28/23 A2992 RMK AO2 SLP134 T02780233
KSSI 162053Z AUTO 13006KT 10SM CLR 28/23 A2992 RMK AO2 SLP133 T02830228 56017
KSSI 161953Z AUTO 11006KT 10SM SCT090 28/23 A2992 RMK AO2 SLP133 T02830233
KSSI 161853Z AUTO 11006KT 10SM FEW033 SCT050 SCT075 30/23 A2993 RMK AO2 SLP138 T03000233
KSSI 161753Z AUTO 31007KT 10SM CLR 30/22 A2997 RMK AO2 SLP149 T03000217 10311 20228 58020
KSSI 161653Z AUTO 34003KT 10SM FEW027 30/22 A3000 RMK AO2 SLP161 T03000222
KSSI 161553Z AUTO 30006KT 10SM FEW020 28/23 A3002 RMK AO2 SLP166 T02830228
KSSI 161453Z AUTO 28004KT 10SM FEW004 26/24 A3003 RMK AO2 SLP170 T02610239 56001
KSSI 161451Z AUTO 29004KT 10SM SCT004 26/24 A3003 RMK AO2
KSSI 161440Z AUTO VRB03KT 10SM BKN004 26/24 A3003 RMK AO2 T02560244
KSSI 161401Z AUTO 31004KT 3SM BR OVC003 24/24 A3003 RMK AO2 T02440239
KSSI 161353Z AUTO 32004KT 2 1/2SM BR OVC004 24/23 A3003 RMK AO2 VIS 1 1/4V5 SLP171 T02390233
KSSI 161350Z AUTO 33005KT 4SM BR OVC004 24/23 A3003 RMK AO2
KSSI 161310Z AUTO 29005KT 3SM BR OVC002 24/23 A3003 RMK AO2 T02390233
KSSI 161253Z AUTO 32004KT 1SM BR OVC002 24/23 A3002 RMK AO2 SLP168 T02390233
KSSI 161242Z AUTO 29003KT 1 3/4SM BR OVC002 23/23 A3002 RMK AO2 T02330233
KSSI 161225Z AUTO 31003KT 2 1/2SM BR OVC002 23/23 A3002 RMK AO2 T02330233
KSSI 161209Z AUTO 31003KT 4SM BR BKN003 BKN065 23/23 A3002 RMK AO2 T02330233
KSSI 161200Z AUTO 00000KT 6SM BR SCT003 BKN065 23/23 A3001 RMK AO2 T02330228
KSSI 161153Z AUTO 31003KT 8SM SCT065 23/22 A3001 RMK AO2 SLP164 T02280222 10250 20222 53004
KSSI 161118Z AUTO 00000KT 3SM BR FEW011 23/22 A3000 RMK AO2 T02280222
KSSI 161107Z AUTO 00000KT 2 1/2SM BR CLR 23/22 A3000 RMK AO2 VIS 1 1/4V5 T02280222
KSSI 161053Z AUTO 00000KT 7SM SCT080 23/22 A3000 RMK AO2 SLP160 T02280222
KSSI 160953Z AUTO 00000KT 10SM CLR 23/23 A2999 RMK AO2 SLP157 T02330228
KSSI 160853Z AUTO 00000KT 10SM BKN075 OVC090 23/23 A3000 RMK AO2 SLP159 T02330228 56005
KSSI 160753Z AUTO 00000KT 10SM SCT013 23/23 A3000 RMK AO2 SLP160 T02330228
KSSI 160653Z AUTO 00000KT 10SM SCT013 23/23 A3001 RMK AO2 SLP163 T02330228
KSSI 160553Z AUTO 12004KT 10SM CLR 24/23 A3001 RMK AO2 SLP165 T02440233 10256 20239 56015
KSSI 160453Z AUTO 11005KT 10SM CLR 25/23 A3003 RMK AO2 SLP169 T02500233 402940228
KSSI 160353Z AUTO 10003KT 10SM CLR 25/23 A3004 RMK AO2 SLP175 T02500233
KSSI 160253Z AUTO 11003KT 10SM CLR 26/24 A3006 RMK AO2 SLP179 T02560239 50001
KSSI 160153Z AUTO 09005KT 10SM CLR 26/23 A3006 RMK AO2 SLP182 T02560233
KSSI 160053Z AUTO 09007KT 10SM CLR 26/23 A3006 RMK AO2 SLP179 T02560233
KSSI 152353Z AUTO 08006KT 10SM CLR 26/23 A3006 RMK AO2 SLP179 T02560233 10289 20256 55001
KSSI 152253Z AUTO 08009KT 10SM CLR 26/23 A3004 RMK AO2 SLP174 T02610233
KSSI 152153Z AUTO 07010KT 10SM FEW012 27/23 A3004 RMK AO2 SLP174 T02670233
KSSI 152053Z AUTO 07011KT 10SM FEW013 28/23 A3006 RMK AO2 SLP180 T02780233 56017
KSSI 151953Z AUTO 06013KT 10SM FEW012 28/23 A3007 RMK AO2 SLP183 T02830233
KSSI 151853Z AUTO 06011KT 10SM CLR 28/23 A3008 RMK AO2 SLP188 T02830233
KSSI 151753Z AUTO 06011KT 10SM CLR 29/23 A3011 RMK AO2 SLP197 T02890233 10294 20250 58016
KSSI 151653Z AUTO 06011KT 10SM FEW024 BKN031 BKN046 28/23 A3013 RMK AO2 SLP204 T02780233
KSSI 151553Z AUTO 06010KT 10SM FEW025 28/23 A3015 RMK AO2 SLP211 T02830233
KSSI 151527Z AUTO 07009KT 10SM SCT027 BKN034 BKN045 29/23 A3016 RMK AO2 T02890233
KSSI 151519Z AUTO 06009KT 10SM FEW015 BKN027 BKN045 28/23 A3016 RMK AO2 T02780233
KSSI 151453Z AUTO 05010KT 10SM FEW025 BKN045 28/23 A3015 RMK AO2 SLP212 T02780233 51009